Time;durP1;ratioP1;P1;durP2;ratioP2;P2;SDS_P1;SDS_P2;PMS_P1;PMS_P2;Temp;Humidity;BMP_temperature;BMP_pressure;BME280_temperature;BME280_humidity;BME280_pressure;Samples;Min_cycle;Max_cycle;Signal;HPM_P1;HPM_P2
2020/12/07 00:02:26;;;;;;;57.05;8.52;;;;;;;;;;5026045;28;20100;-47
2020/12/07 00:04:53;;;;;;;56.50;8.63;;;;;;;;;;5021231;28;20026;-52
2020/12/07 00:07:20;;;;;;;60.30;8.00;;;;;;;;;;5019243;28;20018;-47
2020/12/07 00:09:47;;;;;;;66.22;8.68;;;;;;;;;;5021964;28;20038;-48
2020/12/07 00:12:14;;;;;;;77.63;12.52;;;;;;;;;;5019725;28;20021;-49
2020/12/07 00:14:41;;;;;;;92.85;13.63;;;;;;;;;;5022355;28;20021;-47
2020/12/07 00:17:08;;;;;;;75.00;11.55;;;;;;;;;;5019349;28;20025;-50
2020/12/07 00:19:35;;;;;;;83.00;12.02;;;;;;;;;;5032320;28;20033;-48
2020/12/07 00:22:02;;;;;;;62.78;11.23;;;;;;;;;;5041596;28;20024;-56
2020/12/07 00:24:29;;;;;;;79.80;11.43;;;;;;;;;;5035855;28;20037;-45
2020/12/07 00:26:56;;;;;;;80.72;11.77;;;;;;;;;;5047146;28;20024;-50
2020/12/07 00:29:23;;;;;;;71.60;10.98;;;;;;;;;;5040885;28;20041;-50
2020/12/07 00:31:50;;;;;;;86.95;11.88;;;;;;;;;;5042577;28;20093;-49
2020/12/07 00:34:18;;;;;;;73.13;10.40;;;;;;;;;;5026728;28;20045;-47
2020/12/07 00:36:47;;;;;;;75.57;10.65;;;;;;;;;;5024783;28;20125;-48
2020/12/07 00:39:14;;;;;;;68.05;9.32;;;;;;;;;;5027156;28;20461;-49
2020/12/07 00:41:41;;;;;;;81.80;9.82;;;;;;;;;;5025643;28;20037;-48
2020/12/07 00:44:08;;;;;;;82.15;10.35;;;;;;;;;;5008316;28;20022;-48
2020/12/07 00:46:35;;;;;;;67.90;10.82;;;;;;;;;;5027502;28;20017;-48
2020/12/07 00:49:02;;;;;;;59.78;8.82;;;;;;;;;;5023768;28;20045;-46
2020/12/07 00:51:29;;;;;;;61.20;6.85;;;;;;;;;;5027123;28;20024;-51
2020/12/07 00:53:57;;;;;;;52.83;7.82;;;;;;;;;;5008662;28;20028;-48
2020/12/07 00:56:24;;;;;;;57.00;7.20;;;;;;;;;;5039518;28;20104;-50
2020/12/07 00:58:51;;;;;;;63.28;7.95;;;;;;;;;;5028582;28;20041;-48
2020/12/07 01:01:18;;;;;;;44.65;6.38;;;;;;;;;;5015643;28;20359;-49
2020/12/07 01:03:45;;;;;;;48.05;6.18;;;;;;;;;;5024695;28;20041;-48
2020/12/07 01:06:12;;;;;;;46.50;5.43;;;;;;;;;;5019762;28;20014;-46
2020/12/07 01:08:39;;;;;;;56.38;6.57;;;;;;;;;;5023812;28;20025;-47
2020/12/07 01:11:06;;;;;;;52.13;5.97;;;;;;;;;;5020722;28;20109;-49
2020/12/07 01:13:33;;;;;;;50.72;6.00;;;;;;;;;;5028411;28;20025;-47
2020/12/07 01:16:00;;;;;;;42.92;5.70;;;;;;;;;;5022020;28;20041;-50
2020/12/07 01:18:27;;;;;;;40.83;4.80;;;;;;;;;;5020191;28;20021;-48
2020/12/07 01:20:54;;;;;;;33.08;4.20;;;;;;;;;;5023628;28;20096;-47
2020/12/07 01:23:21;;;;;;;36.85;5.00;;;;;;;;;;5028071;28;20093;-52
2020/12/07 01:25:48;;;;;;;38.42;5.22;;;;;;;;;;5028429;28;20109;-51
2020/12/07 01:28:15;;;;;;;38.50;4.85;;;;;;;;;;5039184;28;20545;-53
2020/12/07 01:30:42;;;;;;;47.35;6.03;;;;;;;;;;5030374;28;20120;-48
2020/12/07 01:33:09;;;;;;;63.30;7.30;;;;;;;;;;5027825;28;20083;-46
2020/12/07 01:35:36;;;;;;;45.97;5.70;;;;;;;;;;5031851;28;20034;-45
2020/12/07 01:38:03;;;;;;;42.75;5.57;;;;;;;;;;5044785;28;20475;-52
2020/12/07 01:40:30;;;;;;;46.88;5.10;;;;;;;;;;5043570;28;20025;-55
2020/12/07 01:42:57;;;;;;;40.90;5.85;;;;;;;;;;5029386;28;20030;-48
2020/12/07 01:45:27;;;;;;;35.17;4.70;;;;;;;;;;5027525;28;20041;-49
2020/12/07 01:47:54;;;;;;;37.13;4.10;;;;;;;;;;5029864;28;20389;-52
2020/12/07 01:50:21;;;;;;;36.92;4.93;;;;;;;;;;5018331;28;20033;-47
2020/12/07 01:52:48;;;;;;;27.27;4.15;;;;;;;;;;5025808;28;20022;-47
2020/12/07 01:55:15;;;;;;;37.40;4.68;;;;;;;;;;5027915;28;20034;-46
2020/12/07 01:57:42;;;;;;;39.67;5.93;;;;;;;;;;5030762;28;20113;-49
2020/12/07 02:00:09;;;;;;;35.88;4.30;;;;;;;;;;5026018;28;20477;-54
2020/12/07 02:02:36;;;;;;;30.80;4.05;;;;;;;;;;5016260;28;20040;-48
2020/12/07 02:05:04;;;;;;;24.98;3.78;;;;;;;;;;5012551;28;20080;-57
2020/12/07 02:07:31;;;;;;;19.50;2.92;;;;;;;;;;5009672;28;20043;-55
2020/12/07 02:09:58;;;;;;;21.27;2.67;;;;;;;;;;5006853;28;20477;-46
2020/12/07 02:12:25;;;;;;;27.33;2.83;;;;;;;;;;5007267;28;20521;-51
2020/12/07 02:14:52;;;;;;;13.88;3.13;;;;;;;;;;5006637;28;20030;-49
2020/12/07 02:17:19;;;;;;;28.17;3.28;;;;;;;;;;5008911;28;20120;-57
2020/12/07 02:19:50;;;;;;;19.35;2.72;;;;;;;;;;5004670;28;20077;-47
2020/12/07 02:22:17;;;;;;;26.85;3.22;;;;;;;;;;5008085;28;20141;-47
2020/12/07 02:24:45;;;;;;;25.65;4.10;;;;;;;;;;5013075;28;20504;-50
2020/12/07 02:27:12;;;;;;;30.15;4.25;;;;;;;;;;5015589;28;20049;-50
2020/12/07 02:29:39;;;;;;;25.70;3.10;;;;;;;;;;5004817;28;20037;-45
2020/12/07 02:32:13;;;;;;;27.90;3.10;;;;;;;;;;5015563;28;20130;-51
2020/12/07 02:34:40;;;;;;;31.92;3.42;;;;;;;;;;5005109;28;20104;-47
2020/12/07 02:37:08;;;;;;;26.15;3.80;;;;;;;;;;5005452;28;20496;-49
2020/12/07 02:39:35;;;;;;;27.60;3.92;;;;;;;;;;5009371;28;20033;-50
2020/12/07 02:42:03;;;;;;;25.60;3.58;;;;;;;;;;4996452;28;20046;-56
2020/12/07 02:44:30;;;;;;;33.20;3.40;;;;;;;;;;5009298;28;20117;-51
2020/12/07 02:47:00;;;;;;;28.27;3.13;;;;;;;;;;5018841;28;20016;-46
2020/12/07 02:49:27;;;;;;;22.33;2.70;;;;;;;;;;5023625;28;20282;-49
2020/12/07 02:51:54;;;;;;;19.88;2.53;;;;;;;;;;5039911;28;20026;-48
2020/12/07 02:54:21;;;;;;;24.30;3.20;;;;;;;;;;5025907;28;20032;-47
2020/12/07 02:56:48;;;;;;;28.95;2.72;;;;;;;;;;5042944;28;20485;-49
2020/12/07 02:59:16;;;;;;;18.77;2.53;;;;;;;;;;5046421;28;20024;-55
2020/12/07 03:01:43;;;;;;;29.40;3.13;;;;;;;;;;5027947;28;20048;-55
2020/12/07 03:04:10;;;;;;;20.38;2.70;;;;;;;;;;5036972;28;20030;-46
2020/12/07 03:06:37;;;;;;;20.02;2.15;;;;;;;;;;5014973;28;20385;-47
2020/12/07 03:09:07;;;;;;;22.55;3.10;;;;;;;;;;5017603;28;20026;-49
2020/12/07 03:11:34;;;;;;;19.80;2.30;;;;;;;;;;5014217;28;20033;-55
2020/12/07 03:14:01;;;;;;;29.83;4.88;;;;;;;;;;5019093;28;20017;-56
2020/12/07 03:16:28;;;;;;;40.95;4.03;;;;;;;;;;5040407;28;20033;-50
2020/12/07 03:18:55;;;;;;;26.95;4.03;;;;;;;;;;5043593;28;20465;-47
2020/12/07 03:21:22;;;;;;;25.77;4.18;;;;;;;;;;5018368;28;20057;-51
2020/12/07 03:23:49;;;;;;;29.38;3.00;;;;;;;;;;5021658;28;20083;-51
2020/12/07 03:26:16;;;;;;;17.50;2.63;;;;;;;;;;5032865;28;20088;-46
2020/12/07 03:28:43;;;;;;;16.58;2.90;;;;;;;;;;5037363;28;20109;-48
2020/12/07 03:31:10;;;;;;;25.33;3.15;;;;;;;;;;5020275;28;20470;-47
2020/12/07 03:33:38;;;;;;;15.65;2.33;;;;;;;;;;5026134;28;20021;-50
2020/12/07 03:36:05;;;;;;;14.43;2.15;;;;;;;;;;5021572;28;20025;-52
2020/12/07 03:38:32;;;;;;;18.35;2.30;;;;;;;;;;5022210;28;20053;-52
2020/12/07 03:40:59;;;;;;;23.92;2.80;;;;;;;;;;5011189;28;20027;-47
2020/12/07 03:43:26;;;;;;;19.63;2.72;;;;;;;;;;5011979;28;20026;-58
2020/12/07 03:45:53;;;;;;;23.67;3.25;;;;;;;;;;5011290;28;20026;-57
2020/12/07 03:48:20;;;;;;;27.75;3.15;;;;;;;;;;5027837;28;20050;-54
2020/12/07 03:50:47;;;;;;;25.73;2.78;;;;;;;;;;5012839;28;20113;-50
2020/12/07 03:53:14;;;;;;;30.60;3.28;;;;;;;;;;5024388;28;20064;-55
2020/12/07 03:55:41;;;;;;;23.50;2.92;;;;;;;;;;5031876;28;20027;-52
2020/12/07 03:58:08;;;;;;;35.67;3.60;;;;;;;;;;5049829;28;20035;-50
2020/12/07 04:00:35;;;;;;;31.42;3.30;;;;;;;;;;5048850;28;20075;-55
2020/12/07 04:03:05;;;;;;;31.75;3.38;;;;;;;;;;5021600;28;20033;-58
2020/12/07 04:05:37;;;;;;;24.90;3.35;;;;;;;;;;5031836;28;20806;-51
2020/12/07 04:08:04;;;;;;;;;;;;;;;;;;5018439;28;20025;-48
2020/12/07 04:10:31;;;;;;;35.88;4.30;;;;;;;;;;5014539;28;19961;-49
2020/12/07 04:12:58;;;;;;;39.88;4.60;;;;;;;;;;5027401;28;20094;-48
2020/12/07 04:15:25;;;;;;;30.80;3.83;;;;;;;;;;5031190;28;20053;-51
2020/12/07 04:17:52;;;;;;;25.30;4.72;;;;;;;;;;5031073;28;20025;-46
2020/12/07 04:20:19;;;;;;;30.52;4.03;;;;;;;;;;5030795;28;20022;-52
2020/12/07 04:22:46;;;;;;;30.25;4.95;;;;;;;;;;5031008;28;20109;-47
2020/12/07 04:25:13;;;;;;;26.58;3.40;;;;;;;;;;5030322;28;20032;-50
2020/12/07 04:27:40;;;;;;;51.63;5.25;;;;;;;;;;5030972;28;20099;-49
2020/12/07 04:30:07;;;;;;;59.97;6.72;;;;;;;;;;5030430;28;20026;-48
2020/12/07 04:32:34;;;;;;;42.28;4.47;;;;;;;;;;5030973;28;20053;-48
2020/12/07 04:35:01;;;;;;;32.80;4.75;;;;;;;;;;5030137;28;20036;-53
2020/12/07 04:37:28;;;;;;;28.77;3.70;;;;;;;;;;5031440;28;20024;-53
2020/12/07 04:39:55;;;;;;;30.48;3.85;;;;;;;;;;5034299;28;20075;-53
2020/12/07 04:42:22;;;;;;;22.67;3.03;;;;;;;;;;5034760;28;20041;-53
2020/12/07 04:44:49;;;;;;;20.88;3.22;;;;;;;;;;5034355;28;20033;-56
2020/12/07 04:47:18;;;;;;;21.48;2.78;;;;;;;;;;5034337;28;20026;-54
2020/12/07 04:49:45;;;;;;;20.40;3.20;;;;;;;;;;5034242;28;20072;-54
2020/12/07 04:52:15;;;;;;;28.58;3.42;;;;;;;;;;5033966;28;20033;-54
2020/12/07 04:54:43;;;;;;;18.88;3.30;;;;;;;;;;5033603;28;20022;-53
2020/12/07 04:57:10;;;;;;;20.75;2.70;;;;;;;;;;5033763;28;20452;-52
2020/12/07 04:59:40;;;;;;;18.00;2.67;;;;;;;;;;5034138;28;20464;-51
2020/12/07 05:02:07;;;;;;;25.90;2.83;;;;;;;;;;5033189;28;20105;-53
2020/12/07 05:04:35;;;;;;;23.25;2.80;;;;;;;;;;5033262;28;20101;-51
2020/12/07 05:07:03;;;;;;;27.67;2.92;;;;;;;;;;5032892;28;20075;-52
2020/12/07 05:09:32;;;;;;;18.60;3.05;;;;;;;;;;5033676;28;20073;-53
2020/12/07 05:12:02;;;;;;;14.07;2.25;;;;;;;;;;5033596;28;20037;-49
2020/12/07 05:14:32;;;;;;;21.20;2.63;;;;;;;;;;5033442;28;20021;-52
2020/12/07 05:17:00;;;;;;;19.13;2.33;;;;;;;;;;5033477;28;20093;-52
2020/12/07 05:19:27;;;;;;;24.40;2.17;;;;;;;;;;5033796;28;20597;-50
2020/12/07 05:21:54;;;;;;;25.00;2.38;;;;;;;;;;5033115;28;20021;-55
2020/12/07 05:24:21;;;;;;;28.52;2.78;;;;;;;;;;5029336;28;20141;-51
2020/12/07 05:26:48;;;;;;;23.17;2.92;;;;;;;;;;5031503;28;20026;-52
2020/12/07 05:29:29;;;;;;;25.90;2.65;;;;;;;;;;5033167;28;20032;-47
2020/12/07 05:31:56;;;;;;;28.90;3.22;;;;;;;;;;5033589;28;20052;-52
2020/12/07 05:34:27;;;;;;;31.10;2.40;;;;;;;;;;5032990;28;20013;-52
2020/12/07 05:36:55;;;;;;;24.67;2.65;;;;;;;;;;5033389;28;20504;-53
2020/12/07 05:39:23;;;;;;;21.45;2.67;;;;;;;;;;5032942;28;20032;-54
2020/12/07 05:41:50;;;;;;;32.28;2.17;;;;;;;;;;5033513;28;20061;-53
2020/12/07 05:44:17;;;;;;;18.35;2.10;;;;;;;;;;5032807;28;20029;-54
2020/12/07 05:46:46;;;;;;;20.95;2.17;;;;;;;;;;5032676;28;20036;-52
2020/12/07 05:49:16;;;;;;;19.38;2.20;;;;;;;;;;5031993;28;20497;-51
2020/12/07 05:51:47;;;;;;;19.90;2.58;;;;;;;;;;5032752;28;20032;-51
2020/12/07 05:54:15;;;;;;;23.48;2.10;;;;;;;;;;5032959;28;20025;-56
2020/12/07 05:56:44;;;;;;;15.90;1.80;;;;;;;;;;5033045;28;20030;-49
2020/12/07 05:59:20;;;;;;;18.15;2.42;;;;;;;;;;5032944;28;20025;-53
2020/12/07 06:01:48;;;;;;;16.95;2.13;;;;;;;;;;5031598;28;20033;-52
2020/12/07 06:04:15;;;;;;;17.10;2.15;;;;;;;;;;5030774;28;20026;-53
2020/12/07 06:06:44;;;;;;;23.92;2.10;;;;;;;;;;5031325;28;20036;-49
2020/12/07 06:09:16;;;;;;;23.02;2.65;;;;;;;;;;5032693;28;20086;-48
2020/12/07 06:11:49;;;;;;;22.50;2.70;;;;;;;;;;5032504;28;20036;-49
2020/12/07 06:14:16;;;;;;;21.75;2.88;;;;;;;;;;5032909;28;20056;-53
2020/12/07 06:16:44;;;;;;;26.08;3.00;;;;;;;;;;5014194;28;20095;-48
2020/12/07 06:19:15;;;;;;;26.08;2.72;;;;;;;;;;5032247;28;20108;-52
2020/12/07 06:21:55;;;;;;;22.25;2.50;;;;;;;;;;5032611;28;20566;-47
2020/12/07 06:24:22;;;;;;;20.75;2.47;;;;;;;;;;5032105;28;20104;-54
2020/12/07 06:27:03;;;;;;;35.72;2.15;;;;;;;;;;5031134;28;20037;-51
2020/12/07 06:29:30;;;;;;;23.48;2.20;;;;;;;;;;5031806;28;20216;-55
2020/12/07 06:32:00;;;;;;;23.55;2.45;;;;;;;;;;5214700;22;20053;-56
2020/12/07 06:34:40;;;;;;;15.70;1.95;;;;;;;;;;5030241;28;20024;-48
2020/12/07 06:37:16;;;;;;;17.58;1.90;;;;;;;;;;5031111;28;21058;-58
2020/12/07 06:39:46;;;;;;;17.25;1.80;;;;;;;;;;5032657;28;20105;-57
2020/12/07 06:42:14;;;;;;;14.15;1.80;;;;;;;;;;5014035;28;20017;-59
2020/12/07 06:44:45;;;;;;;18.63;1.98;;;;;;;;;;5019021;28;20392;-56
2020/12/07 06:47:19;;;;;;;16.65;2.08;;;;;;;;;;5051420;28;20016;-60
2020/12/07 06:52:17;;;;;;;23.95;2.50;;;;;;;;;;5051489;28;20029;-57
2020/12/07 06:57:30;;;;;;;14.02;1.80;;;;;;;;;;5051650;28;20035;-59
2020/12/07 07:00:02;;;;;;;13.80;2.03;;;;;;;;;;5050975;28;20459;-58
2020/12/07 07:02:30;;;;;;;15.20;2.00;;;;;;;;;;5042645;28;20025;-59
2020/12/07 07:04:58;;;;;;;14.73;2.03;;;;;;;;;;5031644;28;20104;-57
2020/12/07 07:07:27;;;;;;;18.10;1.83;;;;;;;;;;5031320;28;20730;-52
2020/12/07 07:09:54;;;;;;;24.48;2.42;;;;;;;;;;5031388;28;20040;-56
2020/12/07 07:12:22;;;;;;;12.27;2.03;;;;;;;;;;5031587;28;20033;-52
2020/12/07 07:14:53;;;;;;;13.85;2.20;;;;;;;;;;5030795;28;20116;-58
2020/12/07 07:17:28;;;;;;;18.47;2.33;;;;;;;;;;5031724;28;20488;-51
2020/12/07 07:19:55;;;;;;;12.93;2.20;;;;;;;;;;5031480;28;20018;-54
2020/12/07 07:22:22;;;;;;;13.23;2.20;;;;;;;;;;5031590;28;20045;-53
2020/12/07 07:25:02;;;;;;;17.20;2.35;;;;;;;;;;5031134;28;20018;-51
2020/12/07 07:30:16;;;;;;;14.45;1.88;;;;;;;;;;5030975;28;20049;-57
2020/12/07 07:32:44;;;;;;;15.77;2.67;;;;;;;;;;5030500;28;20069;-55
2020/12/07 07:35:12;;;;;;;18.98;2.08;;;;;;;;;;5031141;28;20026;-56
2020/12/07 07:37:40;;;;;;;20.58;2.33;;;;;;;;;;5030917;28;20032;-52
2020/12/07 07:40:08;;;;;;;11.15;1.88;;;;;;;;;;5031109;28;20017;-56
2020/12/07 07:42:45;;;;;;;12.23;1.92;;;;;;;;;;5030623;28;20420;-53
2020/12/07 07:45:12;;;;;;;11.07;1.85;;;;;;;;;;5031273;28;20032;-50
2020/12/07 07:47:54;;;;;;;14.30;2.05;;;;;;;;;;5030818;28;20025;-57
2020/12/07 08:15:34;;;;;;;17.38;2.53;;;;;;;;;;5035456;28;20041;-54
2020/12/07 08:18:02;;;;;;;9.07;1.90;;;;;;;;;;5035202;28;20041;-52
2020/12/07 08:20:33;;;;;;;23.13;2.30;;;;;;;;;;5035044;28;20022;-51
2020/12/07 08:23:02;;;;;;;22.23;2.25;;;;;;;;;;5034835;28;20397;-52
2020/12/07 08:25:49;;;;;;;22.77;2.20;;;;;;;;;;5035127;28;20037;-53
2020/12/07 08:28:17;;;;;;;13.90;2.08;;;;;;;;;;5034703;28;20108;-53
2020/12/07 08:30:59;;;;;;;16.38;1.83;;;;;;;;;;5034661;28;20455;-52
2020/12/07 08:33:26;;;;;;;14.60;1.88;;;;;;;;;;5034217;28;20048;-52
2020/12/07 08:35:54;;;;;;;18.15;2.13;;;;;;;;;;5034703;28;20020;-54
2020/12/07 08:38:32;;;;;;;16.35;2.13;;;;;;;;;;5034131;28;20105;-50
2020/12/07 08:41:04;;;;;;;17.38;2.13;;;;;;;;;;5034883;28;20088;-55
2020/12/07 08:43:31;;;;;;;13.68;2.30;;;;;;;;;;5034475;28;20028;-54
2020/12/07 08:45:58;;;;;;;18.33;2.95;;;;;;;;;;5034676;28;20025;-52
2020/12/07 08:48:26;;;;;;;16.67;2.30;;;;;;;;;;5034243;28;20053;-50
2020/12/07 08:50:56;;;;;;;17.10;2.83;;;;;;;;;;5034499;28;20116;-49
2020/12/07 08:53:23;;;;;;;19.42;2.35;;;;;;;;;;5034323;28;20022;-50
2020/12/07 08:55:51;;;;;;;15.60;2.20;;;;;;;;;;5034506;28;20014;-53
2020/12/07 08:58:18;;;;;;;15.60;2.65;;;;;;;;;;5033998;28;20531;-53
2020/12/07 09:00:45;;;;;;;18.67;2.33;;;;;;;;;;5034387;28;20108;-53
2020/12/07 09:03:13;;;;;;;21.52;2.30;;;;;;;;;;5033952;28;20084;-54
2020/12/07 09:05:41;;;;;;;27.10;3.10;;;;;;;;;;5033856;28;20551;-49
2020/12/07 09:08:08;;;;;;;20.45;2.80;;;;;;;;;;5033896;28;20022;-53
2020/12/07 09:10:40;;;;;;;22.30;2.35;;;;;;;;;;5016483;28;20041;-50
2020/12/07 09:13:07;;;;;;;22.35;2.78;;;;;;;;;;5034186;28;20021;-51
2020/12/07 09:15:34;;;;;;;23.15;2.20;;;;;;;;;;5033808;28;20108;-53
2020/12/07 09:18:01;;;;;;;14.60;2.00;;;;;;;;;;5033613;28;20014;-54
2020/12/07 09:20:28;;;;;;;14.93;2.55;;;;;;;;;;5034197;28;20028;-51
2020/12/07 09:22:55;;;;;;;13.80;1.70;;;;;;;;;;5033280;28;20022;-48
2020/12/07 09:25:22;;;;;;;25.80;2.58;;;;;;;;;;5033313;28;20029;-49
2020/12/07 09:27:49;;;;;;;14.30;2.30;;;;;;;;;;5033844;28;20028;-47
2020/12/07 09:30:16;;;;;;;20.73;2.80;;;;;;;;;;5033532;28;20500;-54
2020/12/07 09:32:43;;;;;;;13.20;2.25;;;;;;;;;;5033386;28;20406;-48
2020/12/07 09:35:10;;;;;;;14.80;2.05;;;;;;;;;;5033379;28;20111;-47
2020/12/07 09:37:38;;;;;;;31.15;3.70;;;;;;;;;;5015605;28;20485;-46
2020/12/07 09:40:11;;;;;;;22.83;2.85;;;;;;;;;;5033560;28;20525;-48
2020/12/07 09:42:38;;;;;;;21.58;2.90;;;;;;;;;;5033650;28;20032;-47
2020/12/07 09:45:06;;;;;;;24.92;2.42;;;;;;;;;;5015657;28;20393;-47
2020/12/07 09:47:33;;;;;;;18.67;2.00;;;;;;;;;;5033228;28;20021;-48
2020/12/07 09:50:00;;;;;;;19.75;3.13;;;;;;;;;;5033469;28;20048;-48
2020/12/07 09:52:27;;;;;;;17.48;2.47;;;;;;;;;;5033306;28;20052;-56
2020/12/07 09:54:54;;;;;;;21.65;2.33;;;;;;;;;;5033049;28;20029;-49
2020/12/07 09:57:21;;;;;;;20.80;2.47;;;;;;;;;;5033285;28;20022;-48
2020/12/07 09:59:49;;;;;;;26.40;3.65;;;;;;;;;;5033285;28;20064;-50
2020/12/07 10:02:17;;;;;;;25.65;2.65;;;;;;;;;;5033043;28;20044;-51
2020/12/07 10:04:44;;;;;;;23.38;3.13;;;;;;;;;;5032772;28;20021;-49
2020/12/07 10:07:11;;;;;;;26.38;2.60;;;;;;;;;;5015507;28;20027;-47
2020/12/07 10:09:38;;;;;;;31.95;3.38;;;;;;;;;;5032600;28;20515;-52
2020/12/07 10:12:05;;;;;;;22.00;2.55;;;;;;;;;;5033311;28;20021;-50
2020/12/07 10:14:32;;;;;;;23.98;2.42;;;;;;;;;;5032701;28;20021;-55
2020/12/07 10:17:00;;;;;;;34.70;3.70;;;;;;;;;;5032949;28;20117;-51
2020/12/07 10:19:27;;;;;;;36.25;3.00;;;;;;;;;;5032673;28;20026;-52
2020/12/07 10:21:55;;;;;;;34.65;3.60;;;;;;;;;;5032806;28;20039;-47
2020/12/07 10:24:22;;;;;;;27.80;2.55;;;;;;;;;;5032355;28;20060;-48
2020/12/07 10:26:49;;;;;;;19.38;2.90;;;;;;;;;;5032983;28;20057;-48
2020/12/07 10:29:16;;;;;;;32.45;3.35;;;;;;;;;;5032706;28;20064;-47
2020/12/07 10:31:44;;;;;;;28.05;3.35;;;;;;;;;;5032001;28;20030;-54
2020/12/07 10:34:11;;;;;;;36.13;3.20;;;;;;;;;;5031516;28;20551;-47
2020/12/07 10:36:38;;;;;;;20.95;2.63;;;;;;;;;;5032606;28;20094;-57
2020/12/07 10:39:08;;;;;;;17.83;2.60;;;;;;;;;;5032666;28;20029;-51
2020/12/07 10:41:35;;;;;;;22.80;2.53;;;;;;;;;;5031887;28;20018;-49
2020/12/07 10:44:02;;;;;;;35.63;3.80;;;;;;;;;;5031905;28;20118;-60
2020/12/07 10:46:29;;;;;;;31.30;3.30;;;;;;;;;;5031406;28;20013;-50
2020/12/07 10:48:56;;;;;;;28.73;3.75;;;;;;;;;;5031890;28;20071;-54
2020/12/07 10:51:23;;;;;;;28.27;2.95;;;;;;;;;;5031534;28;20032;-51
2020/12/07 10:53:50;;;;;;;40.28;3.90;;;;;;;;;;5013419;28;20033;-56
2020/12/07 10:56:17;;;;;;;31.25;3.38;;;;;;;;;;5032124;28;20366;-49
2020/12/07 10:58:44;;;;;;;40.75;3.75;;;;;;;;;;5032324;28;20053;-57
2020/12/07 11:01:11;;;;;;;37.58;4.22;;;;;;;;;;5031393;28;20021;-50
2020/12/07 11:03:40;;;;;;;38.95;3.25;;;;;;;;;;5030658;28;20021;-54
2020/12/07 11:06:25;;;;;;;28.70;3.58;;;;;;;;;;5026917;28;20068;-52
2020/12/07 11:08:56;;;;;;;23.88;2.63;;;;;;;;;;5031815;28;20033;-49
2020/12/07 11:11:24;;;;;;;24.60;2.60;;;;;;;;;;5031255;28;20121;-58
2020/12/07 11:13:51;;;;;;;37.92;4.32;;;;;;;;;;5031064;28;20025;-54
2020/12/07 11:16:24;;;;;;;37.50;4.40;;;;;;;;;;5031676;28;20021;-59
2020/12/07 11:18:51;;;;;;;40.13;4.00;;;;;;;;;;5031684;28;20084;-60
2020/12/07 11:21:18;;;;;;;41.08;4.13;;;;;;;;;;5031014;28;20037;-55
2020/12/07 11:23:46;;;;;;;34.53;3.60;;;;;;;;;;5031302;28;20084;-52
2020/12/07 11:26:14;;;;;;;21.73;2.95;;;;;;;;;;5033816;28;20087;-60
2020/12/07 11:28:41;;;;;;;40.05;4.18;;;;;;;;;;5051346;28;20480;-55
2020/12/07 11:31:12;;;;;;;30.60;3.55;;;;;;;;;;5051040;28;20036;-57
2020/12/07 11:33:39;;;;;;;62.65;7.07;;;;;;;;;;5032969;28;20064;-50
2020/12/07 11:36:06;;;;;;;56.80;4.70;;;;;;;;;;5031594;28;20036;-49
2020/12/07 11:38:41;;;;;;;41.08;4.50;;;;;;;;;;5031167;28;20052;-53
2020/12/07 11:44:36;;;;;;;54.47;5.82;;;;;;;;;;5031591;28;20111;-48
2020/12/07 11:49:14;;;;;;;41.05;4.25;;;;;;;;;;5031208;28;20061;-48
2020/12/07 11:51:41;;;;;;;89.72;7.25;;;;;;;;;;5031180;28;20396;-51
2020/12/07 11:54:08;;;;;;;58.25;6.38;;;;;;;;;;5031101;28;20048;-58
2020/12/07 11:56:36;;;;;;;62.65;6.75;;;;;;;;;;5031538;28;20133;-58
2020/12/07 11:59:05;;;;;;;52.50;6.22;;;;;;;;;;5031149;28;20024;-53
2020/12/07 12:01:32;;;;;;;58.60;6.65;;;;;;;;;;5030821;28;20048;-59
2020/12/07 12:03:59;;;;;;;56.78;5.72;;;;;;;;;;5031086;28;20470;-50
2020/12/07 12:06:27;;;;;;;54.80;5.65;;;;;;;;;;5030909;28;20100;-58
2020/12/07 12:08:55;;;;;;;48.75;4.90;;;;;;;;;;5029769;28;20481;-49
2020/12/07 12:11:27;;;;;;;74.45;7.55;;;;;;;;;;5030899;28;20033;-56
2020/12/07 12:13:54;;;;;;;70.53;7.63;;;;;;;;;;5031334;28;20064;-49
2020/12/07 12:16:23;;;;;;;86.10;8.20;;;;;;;;;;5030937;28;20025;-51
2020/12/07 12:18:51;;;;;;;61.67;7.45;;;;;;;;;;5030604;28;20458;-53
2020/12/07 12:21:22;;;;;;;74.55;7.15;;;;;;;;;;5031072;28;20104;-54
2020/12/07 12:23:49;;;;;;;67.20;7.35;;;;;;;;;;5030994;28;20029;-57
2020/12/07 12:26:17;;;;;;;102.80;8.80;;;;;;;;;;5030590;28;20117;-48
2020/12/07 12:28:44;;;;;;;77.47;7.68;;;;;;;;;;5030254;28;20144;-48
2020/12/07 12:31:11;;;;;;;88.85;7.65;;;;;;;;;;5028604;28;20041;-48
2020/12/07 12:33:39;;;;;;;90.00;9.23;;;;;;;;;;5029051;28;20412;-51
2020/12/07 12:36:06;;;;;;;106.18;9.52;;;;;;;;;;5029144;28;20034;-51
2020/12/07 12:38:33;;;;;;;100.90;9.77;;;;;;;;;;5030161;28;20033;-50
2020/12/07 12:41:00;;;;;;;119.30;11.98;;;;;;;;;;5030476;28;20022;-47
2020/12/07 12:43:27;;;;;;;157.00;14.18;;;;;;;;;;5030204;28;20021;-48
2020/12/07 12:45:54;;;;;;;164.48;15.18;;;;;;;;;;5030547;28;20472;-47
2020/12/07 12:48:21;;;;;;;141.50;15.13;;;;;;;;;;5033730;28;20159;-53
2020/12/07 12:50:48;;;;;;;109.63;10.18;;;;;;;;;;5031415;28;20033;-63
2020/12/07 12:53:15;;;;;;;96.95;9.63;;;;;;;;;;5019340;28;20362;-59
2020/12/07 12:55:42;;;;;;;110.13;9.90;;;;;;;;;;5029337;28;20032;-58
2020/12/07 12:58:09;;;;;;;87.45;8.85;;;;;;;;;;5035857;28;20021;-59
2020/12/07 13:00:36;;;;;;;88.43;8.85;;;;;;;;;;5042728;28;20126;-51
2020/12/07 13:03:03;;;;;;;78.00;8.15;;;;;;;;;;5032920;28;20393;-54
2020/12/07 13:05:30;;;;;;;71.93;7.00;;;;;;;;;;5041254;28;20034;-55
2020/12/07 13:07:57;;;;;;;75.10;7.95;;;;;;;;;;5019527;28;20092;-55
2020/12/07 13:10:24;;;;;;;76.97;7.78;;;;;;;;;;5034106;28;20124;-53
2020/12/07 13:12:51;;;;;;;71.63;6.90;;;;;;;;;;5035737;28;20022;-56
2020/12/07 13:15:19;;;;;;;103.55;9.10;;;;;;;;;;5035716;28;20032;-59
2020/12/07 13:17:51;;;;;;;85.18;8.85;;;;;;;;;;5034053;28;20014;-56
2020/12/07 13:20:25;;;;;;;92.22;10.43;;;;;;;;;;5030178;28;20497;-48
2020/12/07 13:23:04;;;;;;;81.50;8.70;;;;;;;;;;5029598;28;20393;-48
2020/12/07 13:26:25;;;;;;;82.50;8.93;;;;;;;;;;5030306;28;20041;-55
2020/12/07 13:28:18;;;;;;;62.63;6.57;;;;;;;;;;5020651;28;20025;-57
2020/12/07 13:30:45;;;;;;;78.72;8.45;;;;;;;;;;5030105;28;20045;-59
2020/12/07 13:33:12;;;;;;;69.07;6.22;;;;;;;;;;5031833;28;20041;-57
2020/12/07 13:35:40;;;;;;;81.95;7.63;;;;;;;;;;5035535;28;20029;-61
2020/12/07 13:38:07;;;;;;;80.32;8.02;;;;;;;;;;5038681;28;20032;-48
2020/12/07 13:40:34;;;;;;;76.00;6.85;;;;;;;;;;5033079;28;20025;-48
2020/12/07 13:43:02;;;;;;;75.10;7.50;;;;;;;;;;5017855;28;20024;-46
2020/12/07 13:45:29;;;;;;;80.97;8.38;;;;;;;;;;5019136;28;20037;-46
2020/12/07 13:47:57;;;;;;;70.82;8.55;;;;;;;;;;5026755;28;20033;-52
2020/12/07 13:50:24;;;;;;;95.20;10.13;;;;;;;;;;5024371;28;20041;-49
2020/12/07 13:52:51;;;;;;;70.18;8.18;;;;;;;;;;5019299;28;20026;-49
2020/12/07 13:55:19;;;;;;;66.90;7.43;;;;;;;;;;5024723;28;20025;-46
2020/12/07 13:57:47;;;;;;;54.85;7.30;;;;;;;;;;5027686;28;20040;-51
2020/12/07 14:00:14;;;;;;;64.88;7.95;;;;;;;;;;5026404;28;20076;-52
2020/12/07 14:02:41;;;;;;;67.97;7.30;;;;;;;;;;5019840;28;20116;-60
2020/12/07 14:05:09;;;;;;;73.70;8.23;;;;;;;;;;5024909;28;20087;-53
2020/12/07 14:07:36;;;;;;;62.67;6.70;;;;;;;;;;5020043;28;20380;-50
2020/12/07 14:41:19;;;;;;;60.85;7.13;;;;;;;;;;3670898;28;20086;-57
2020/12/07 14:43:46;;;;;;;66.15;6.72;;;;;;;;;;4955199;28;20093;-59
2020/12/07 14:46:24;;;;;;;54.58;7.30;;;;;;;;;;4956248;28;20482;-52
2020/12/07 14:48:52;;;;;;;70.78;8.18;;;;;;;;;;4937180;28;20268;-48
2020/12/07 14:51:29;;;;;;;58.08;7.40;;;;;;;;;;4956181;28;20085;-54
2020/12/07 14:54:02;;;;;;;70.40;7.13;;;;;;;;;;4956518;28;20026;-55
2020/12/07 14:56:47;;;;;;;62.10;7.85;;;;;;;;;;4957132;28;20027;-60
2020/12/07 15:07:50;;;;;;;70.15;7.28;;;;;;;;;;4960185;28;20046;-54
2020/12/07 15:15:01;;;;;;;61.75;7.85;;;;;;;;;;4958062;28;20031;-57
2020/12/07 15:17:28;;;;;;;70.88;7.93;;;;;;;;;;4954752;28;20057;-59
2020/12/07 15:19:55;;;;;;;60.45;7.40;;;;;;;;;;4953677;28;20272;-61
2020/12/07 15:22:22;;;;;;;69.70;8.40;;;;;;;;;;4947665;28;20565;-54
2020/12/07 15:24:49;;;;;;;66.38;7.15;;;;;;;;;;4961214;28;20034;-60
2020/12/07 15:27:16;;;;;;;61.42;7.60;;;;;;;;;;4958361;28;20026;-56
2020/12/07 15:29:43;;;;;;;68.78;8.50;;;;;;;;;;4950017;28;21363;-56
2020/12/07 15:32:10;;;;;;;70.72;8.63;;;;;;;;;;4956836;28;20402;-49
2020/12/07 15:34:37;;;;;;;70.53;7.95;;;;;;;;;;4954142;28;20478;-59
2020/12/07 15:37:04;;;;;;;63.63;7.60;;;;;;;;;;4943769;29;20048;-51
2020/12/07 15:39:31;;;;;;;74.70;9.38;;;;;;;;;;4930645;29;20039;-52
2020/12/07 15:41:58;;;;;;;69.70;8.23;;;;;;;;;;4940179;29;20399;-56
2020/12/07 15:44:25;;;;;;;70.15;9.30;;;;;;;;;;4936809;29;20106;-57
2020/12/07 15:46:53;;;;;;;68.10;7.05;;;;;;;;;;4941383;29;20380;-52
2020/12/07 15:49:19;;;;;;;55.83;7.72;;;;;;;;;;4940074;29;20027;-52
2020/12/07 15:51:58;;;;;;;57.83;7.40;;;;;;;;;;4938201;29;20478;-55
2020/12/07 15:54:25;;;;;;;68.40;7.25;;;;;;;;;;4937130;29;20024;-60
2020/12/07 15:56:53;;;;;;;61.85;7.30;;;;;;;;;;4938015;29;20028;-51
2020/12/07 15:59:20;;;;;;;51.30;8.18;;;;;;;;;;4941325;29;20391;-57